Gaziantep, Turkey
Current Conditions -  °F | °C
As of 12:20 AM on Thursday 18 Dec 2014 (Local Time) from LTAJ Reporting Station
Clear Clear  
Wind Chill: 45°   Ceiling: Unl
Heat Index: 45°   Visibility: 6mi
Dew Point: 39°   Wind: 1mph
Humidity: 81%   Direction: 360°N
Pressure: 30.24"   Gusts: NA
Location:  37.07°N, 37.39°E
Report Text: LTAJ 172120Z 36001KT CAVOK 07/04 Q1024 NOSIG
Loading
Personal Weather Stations






























Interactive Weather Map New forecast layout! Learn more

10-Day Weather Forecast

Advertisements
Track Severe Weather on mobile